createdAt,value
2018-11-04T00:00:24.981Z,25.33
2018-11-04T00:02:54.837Z,21.43
2018-11-04T00:05:24.496Z,23.13
2018-11-04T00:07:54.021Z,24.53
2018-11-04T00:10:23.848Z,23.60
2018-11-04T00:12:53.535Z,23.23
2018-11-04T00:15:23.186Z,24.70
2018-11-04T00:17:53.165Z,22.17
2018-11-04T00:20:22.630Z,24.37
2018-11-04T00:22:52.390Z,21.80
2018-11-04T00:25:22.154Z,23.07
2018-11-04T00:27:51.824Z,24.37
2018-11-04T00:30:21.460Z,23.10
2018-11-04T00:32:51.147Z,24.20
2018-11-04T00:35:20.810Z,23.50
2018-11-04T00:37:50.560Z,21.63
2018-11-04T00:40:20.147Z,23.33
2018-11-04T00:42:49.676Z,22.70
2018-11-04T00:45:19.572Z,25.30
2018-11-04T00:47:49.321Z,22.97
2018-11-04T00:50:19.032Z,24.27
2018-11-04T00:52:48.804Z,23.23
2018-11-04T00:55:18.653Z,22.60
2018-11-04T00:57:48.398Z,24.13
2018-11-04T01:00:19.306Z,23.70
2018-11-04T01:02:50.103Z,23.13
2018-11-04T01:05:20.026Z,21.97
2018-11-04T01:07:49.634Z,25.37
2018-11-04T01:10:19.440Z,21.73
2018-11-04T01:12:49.280Z,23.23
2018-11-04T01:15:18.988Z,22.27
2018-11-04T01:17:48.615Z,21.23
2018-11-04T01:20:18.413Z,24.20
2018-11-04T01:22:48.118Z,23.00
2018-11-04T01:25:17.832Z,22.57
2018-11-04T01:27:47.632Z,24.20
2018-11-04T01:30:17.351Z,23.87
2018-11-04T01:32:46.946Z,24.83
2018-11-04T01:35:16.718Z,22.40
2018-11-04T01:37:46.488Z,22.40
2018-11-04T01:40:16.184Z,21.03
2018-11-04T01:42:45.805Z,22.63
2018-11-04T01:45:16.400Z,24.40
2018-11-04T01:47:46.245Z,22.10
2018-11-04T01:50:15.814Z,21.60
2018-11-04T01:52:45.493Z,22.83
2018-11-04T01:55:15.185Z,22.80
2018-11-04T01:57:44.637Z,21.47
2018-11-04T02:00:15.538Z,22.00
2018-11-04T02:02:45.937Z,22.63
2018-11-04T02:05:16.083Z,24.17
2018-11-04T02:07:45.825Z,21.40
2018-11-04T02:10:15.803Z,23.60
2018-11-04T02:12:45.446Z,24.43
2018-11-04T02:15:15.123Z,24.23
2018-11-04T02:17:46.070Z,23.03
2018-11-04T02:20:15.882Z,22.93
2018-11-04T02:22:45.633Z,22.80
2018-11-04T02:25:15.271Z,21.70
2018-11-04T02:27:45.036Z,20.57
2018-11-04T02:30:16.073Z,23.40
2018-11-04T02:32:46.667Z,21.90
2018-11-04T02:35:16.835Z,22.20
2018-11-04T02:37:46.466Z,22.20
2018-11-04T02:40:16.320Z,22.60
2018-11-04T02:42:45.963Z,21.90
2018-11-04T02:45:15.538Z,22.87
2018-11-04T02:47:45.140Z,23.70
2018-11-04T02:50:14.976Z,22.63
2018-11-04T02:52:44.549Z,23.43
2018-11-04T02:55:14.252Z,20.67
2018-11-04T02:57:43.983Z,22.00
2018-11-04T03:00:15.044Z,22.10
2018-11-04T03:02:44.648Z,23.50
2018-11-04T03:05:14.397Z,22.30
2018-11-04T03:07:44.388Z,23.60
2018-11-04T03:10:14.877Z,24.33
2018-11-04T03:12:44.571Z,23.73
2018-11-04T03:15:14.010Z,25.57
2018-11-04T03:17:43.730Z,24.50
2018-11-04T03:20:13.498Z,25.23
2018-11-04T03:22:43.252Z,23.63
2018-11-04T03:25:12.953Z,23.77
2018-11-04T03:27:42.461Z,23.53
2018-11-04T03:30:12.196Z,23.33
2018-11-04T03:32:41.783Z,22.60
2018-11-04T03:35:11.490Z,24.33
2018-11-04T03:37:41.743Z,22.13
2018-11-04T03:40:12.492Z,21.07
2018-11-04T03:42:42.642Z,25.03
2018-11-04T03:45:12.362Z,24.57
2018-11-04T03:47:41.958Z,24.80
2018-11-04T03:50:12.831Z,24.60
2018-11-04T03:52:42.802Z,22.20
2018-11-04T03:55:12.576Z,26.20
2018-11-04T03:57:42.226Z,25.30
2018-11-04T04:00:13.014Z,22.70
2018-11-04T04:02:43.570Z,21.67
2018-11-04T04:05:13.320Z,25.73
2018-11-04T04:07:43.050Z,22.47
2018-11-04T04:10:12.606Z,21.83
2018-11-04T04:12:42.483Z,24.83
2018-11-04T04:15:12.384Z,21.40
2018-11-04T04:17:42.230Z,25.27
2018-11-04T04:20:12.097Z,23.50
2018-11-04T04:22:41.703Z,21.87
2018-11-04T04:25:11.520Z,24.73
2018-11-04T04:27:41.294Z,23.03
2018-11-04T04:30:11.799Z,23.67
2018-11-04T04:32:41.582Z,23.87
2018-11-04T04:35:11.754Z,22.60
2018-11-04T04:37:42.134Z,20.60
2018-11-04T04:40:11.642Z,22.40
2018-11-04T04:42:41.344Z,22.97
2018-11-04T04:45:11.105Z,22.90
2018-11-04T04:47:40.732Z,21.60
2018-11-04T04:50:10.596Z,23.17
2018-11-04T04:52:40.407Z,23.53
2018-11-04T04:55:10.297Z,21.43
2018-11-04T04:57:40.118Z,22.67
2018-11-04T05:00:09.742Z,23.67
2018-11-04T05:02:39.315Z,23.07
2018-11-04T05:05:09.152Z,24.20
2018-11-04T05:07:38.886Z,22.37
2018-11-04T05:10:08.357Z,24.27
2018-11-04T05:12:38.085Z,24.43
2018-11-04T05:15:08.436Z,25.20
2018-11-04T05:17:38.444Z,24.40
2018-11-04T05:20:08.070Z,25.43
2018-11-04T05:22:37.830Z,28.30
2018-11-04T05:25:07.579Z,26.00
2018-11-04T05:27:37.038Z,25.83
2018-11-04T05:30:08.915Z,24.40
2018-11-04T05:32:38.661Z,22.93
2018-11-04T05:35:08.553Z,24.30
2018-11-04T05:37:38.627Z,24.27
2018-11-04T05:40:08.470Z,25.40
2018-11-04T05:42:38.007Z,23.93
2018-11-04T05:45:08.012Z,23.73
2018-11-04T05:47:37.940Z,25.47
2018-11-04T05:50:07.833Z,24.63
2018-11-04T05:52:37.750Z,23.30
2018-11-04T05:55:08.131Z,26.03
2018-11-04T05:57:38.030Z,22.53
2018-11-04T06:00:08.733Z,23.70
2018-11-04T06:02:38.476Z,25.30
2018-11-04T06:05:09.158Z,28.97
2018-11-04T06:07:38.846Z,24.27
2018-11-04T06:10:08.559Z,25.67
2018-11-04T06:12:38.562Z,26.63
2018-11-04T06:15:08.950Z,26.40
2018-11-04T06:17:38.772Z,24.30
2018-11-04T06:20:09.556Z,25.90
2018-11-04T06:22:39.246Z,23.90
2018-11-04T06:25:09.032Z,26.33
2018-11-04T06:27:38.844Z,24.50
2018-11-04T06:30:10.336Z,26.83
2018-11-04T06:32:40.036Z,23.60
2018-11-04T06:35:10.344Z,24.67
2018-11-04T06:37:40.022Z,27.50
2018-11-04T06:40:10.608Z,23.23
2018-11-04T06:42:40.361Z,25.73
2018-11-04T06:45:10.921Z,25.63
2018-11-04T06:47:40.890Z,25.17
2018-11-04T06:50:12.387Z,22.07
2018-11-04T06:52:42.890Z,20.83
2018-11-04T06:55:12.494Z,21.90
2018-11-04T06:57:42.258Z,23.23
2018-11-04T07:00:12.431Z,22.07
2018-11-04T07:02:42.138Z,23.00
2018-11-04T07:05:11.880Z,22.30
2018-11-04T07:07:41.694Z,20.27
2018-11-04T07:10:11.479Z,21.67
2018-11-04T07:12:41.193Z,23.27
2018-11-04T07:15:10.824Z,22.47
2018-11-04T07:17:40.510Z,23.60
2018-11-04T07:20:10.319Z,23.03
2018-11-04T07:22:39.792Z,23.83
2018-11-04T07:25:09.495Z,23.20
2018-11-04T07:27:39.373Z,21.03
2018-11-04T07:30:10.726Z,22.20
2018-11-04T07:32:40.477Z,22.80
2018-11-04T07:35:10.693Z,21.20
2018-11-04T07:37:40.600Z,21.57
2018-11-04T07:40:10.385Z,22.60
2018-11-04T07:42:39.916Z,25.23
2018-11-04T07:45:10.178Z,24.37
2018-11-04T07:47:39.827Z,22.53
2018-11-04T07:50:11.930Z,21.43
2018-11-04T07:52:41.891Z,20.53
2018-11-04T07:55:11.549Z,22.93
2018-11-04T07:57:42.264Z,22.17
2018-11-04T08:00:14.990Z,21.10
2018-11-04T08:02:45.063Z,21.07
2018-11-04T08:05:14.724Z,24.33
2018-11-04T08:07:44.426Z,21.57
2018-11-04T08:10:14.829Z,23.27
2018-11-04T08:12:44.535Z,21.50
2018-11-04T08:15:14.324Z,22.90
2018-11-04T08:17:44.014Z,23.10
2018-11-04T08:20:13.815Z,22.13
2018-11-04T08:22:43.475Z,20.53
2018-11-04T08:25:13.150Z,23.77
2018-11-04T08:27:43.050Z,23.93
2018-11-04T08:30:12.785Z,24.13
2018-11-04T08:32:42.410Z,23.73
2018-11-04T08:35:12.195Z,23.00
2018-11-04T08:37:41.936Z,23.00
2018-11-04T08:40:11.806Z,25.20
2018-11-04T08:42:41.349Z,21.47
2018-11-04T08:45:11.082Z,23.00
2018-11-04T08:47:40.806Z,22.97
2018-11-04T08:50:11.164Z,25.27
2018-11-04T08:52:40.978Z,25.43
2018-11-04T08:55:11.195Z,22.77
2018-11-04T08:57:40.820Z,25.33
2018-11-04T09:00:13.029Z,22.53
2018-11-04T09:02:43.551Z,21.23
2018-11-04T09:05:13.247Z,22.43
2018-11-04T09:07:42.942Z,21.40
2018-11-04T09:10:14.776Z,24.23
2018-11-04T09:12:45.160Z,21.90
2018-11-04T09:15:14.968Z,23.50
2018-11-04T09:17:44.578Z,23.97
2018-11-04T09:20:16.635Z,23.47
2018-11-04T09:22:46.392Z,24.13
2018-11-04T09:25:16.034Z,24.73
2018-11-04T09:27:45.758Z,23.57
2018-11-04T09:30:16.462Z,23.00
2018-11-04T09:32:46.212Z,22.83
2018-11-04T09:35:15.866Z,25.50
2018-11-04T09:37:45.502Z,23.90
2018-11-04T09:40:15.260Z,24.50
2018-11-04T09:42:45.115Z,23.03
2018-11-04T09:45:15.026Z,22.00
2018-11-04T09:47:44.882Z,21.93
2018-11-04T09:50:14.377Z,21.80
2018-11-04T09:52:44.137Z,23.63
2018-11-04T09:55:13.873Z,22.37
2018-11-04T09:57:43.693Z,19.47
2018-11-04T10:00:13.624Z,22.50
2018-11-04T10:02:43.535Z,24.57
2018-11-04T10:05:13.174Z,22.40
2018-11-04T10:07:42.741Z,21.90
2018-11-04T10:10:13.742Z,24.60
2018-11-04T10:12:44.145Z,22.47
2018-11-04T10:15:13.934Z,21.50
2018-11-04T10:17:44.614Z,18.70
2018-11-04T10:20:14.582Z,19.43
2018-11-04T10:22:43.961Z,22.80
2018-11-04T10:25:13.804Z,21.93
2018-11-04T10:27:43.639Z,22.43
2018-11-04T10:30:14.709Z,19.47
2018-11-04T10:32:44.593Z,20.57
2018-11-04T10:35:14.186Z,23.67
2018-11-04T10:37:44.114Z,24.57
2018-11-04T10:40:14.106Z,25.43
2018-11-04T10:42:43.839Z,22.90
2018-11-04T10:45:13.460Z,23.07
2018-11-04T10:47:43.219Z,21.40
2018-11-04T10:50:13.505Z,22.50
2018-11-04T10:52:43.181Z,22.90
2018-11-04T10:55:12.843Z,22.03
2018-11-04T10:57:42.510Z,21.03
2018-11-04T11:01:15.042Z,22.43
2018-11-04T11:03:44.826Z,22.80
2018-11-04T11:06:14.609Z,22.07
2018-11-04T11:08:44.361Z,20.60
2018-11-04T11:11:14.005Z,20.13
2018-11-04T11:13:43.742Z,22.17
2018-11-04T11:16:13.375Z,22.47
2018-11-04T11:18:43.721Z,22.03
2018-11-04T11:21:13.258Z,26.10
2018-11-04T11:23:42.853Z,23.67
2018-11-04T11:26:12.567Z,21.97
2018-11-04T11:28:42.285Z,21.27
2018-11-04T11:31:12.135Z,20.27
2018-11-04T11:33:41.801Z,20.60
2018-11-04T11:36:11.431Z,22.27
2018-11-04T11:38:41.275Z,22.93
2018-11-04T11:41:10.902Z,22.53
2018-11-04T11:43:40.658Z,20.33
2018-11-04T11:46:10.520Z,23.70
2018-11-04T11:48:40.254Z,22.47
2018-11-04T11:51:09.934Z,22.37
2018-11-04T11:53:39.422Z,21.83
2018-11-04T11:56:09.029Z,22.50
2018-11-04T11:58:38.780Z,19.70
2018-11-04T12:01:08.390Z,21.17
2018-11-04T12:03:38.237Z,21.77
2018-11-04T12:06:08.044Z,25.30
2018-11-04T12:08:37.785Z,20.63
2018-11-04T12:11:07.733Z,21.97
2018-11-04T12:13:37.521Z,20.13
2018-11-04T12:16:07.430Z,23.07
2018-11-04T12:18:37.227Z,23.73
2018-11-04T12:21:06.910Z,22.40
2018-11-04T12:23:36.725Z,24.40
2018-11-04T12:26:06.621Z,21.77
2018-11-04T12:28:36.318Z,22.93
2018-11-04T12:31:06.386Z,23.73
2018-11-04T12:33:36.144Z,19.80
2018-11-04T12:36:05.870Z,21.77
2018-11-04T12:38:35.570Z,18.37
2018-11-04T12:41:05.584Z,20.43
2018-11-04T12:43:35.400Z,24.30
2018-11-04T12:46:05.198Z,22.73
2018-11-04T12:48:34.872Z,21.63
2018-11-04T12:51:04.696Z,21.30
2018-11-04T12:53:34.398Z,21.93
2018-11-04T12:56:03.972Z,24.87
2018-11-04T12:58:33.523Z,22.27
2018-11-04T13:01:03.375Z,22.63
2018-11-04T13:03:33.014Z,22.93
2018-11-04T13:06:02.880Z,25.17
2018-11-04T13:08:32.548Z,23.33
2018-11-04T13:11:02.202Z,20.00
2018-11-04T13:13:31.824Z,20.80
2018-11-04T13:16:01.532Z,22.77
2018-11-04T13:18:31.166Z,20.50
2018-11-04T13:21:00.910Z,19.90
2018-11-04T13:23:30.645Z,21.40
2018-11-04T13:26:00.353Z,21.10
2018-11-04T13:28:30.192Z,23.07
2018-11-04T13:30:59.942Z,22.00
2018-11-04T13:33:29.812Z,24.23
2018-11-04T13:35:59.539Z,21.43
2018-11-04T13:38:29.341Z,21.03
2018-11-04T13:40:59.051Z,23.80
2018-11-04T13:43:28.914Z,21.90
2018-11-04T13:45:58.733Z,21.77
2018-11-04T13:48:28.318Z,24.80
2018-11-04T13:50:57.972Z,21.57
2018-11-04T13:53:27.670Z,21.63
2018-11-04T13:55:57.291Z,20.67
2018-11-04T13:58:27.281Z,21.50
2018-11-04T14:00:57.009Z,22.97
2018-11-04T14:03:26.593Z,20.33
2018-11-04T14:05:56.421Z,18.73
2018-11-04T14:08:26.152Z,21.93
2018-11-04T14:10:56.189Z,21.80
2018-11-04T14:13:25.942Z,19.37
2018-11-04T14:15:55.778Z,19.07
2018-11-04T14:18:25.825Z,19.47
2018-11-04T14:20:55.698Z,21.57
2018-11-04T14:23:25.405Z,19.80
2018-11-04T14:25:55.215Z,19.37
2018-11-04T14:28:25.087Z,20.20
2018-11-04T14:30:54.948Z,18.30
2018-11-04T14:33:24.786Z,20.47
2018-11-04T14:35:54.509Z,16.03
2018-11-04T14:38:24.484Z,20.07
2018-11-04T14:40:55.114Z,17.50
2018-11-04T14:43:24.891Z,18.80
2018-11-04T14:45:54.474Z,18.00
2018-11-04T14:48:24.409Z,17.97
2018-11-04T14:50:54.090Z,17.90
2018-11-04T14:53:24.091Z,18.20
2018-11-04T14:55:53.901Z,17.20
2018-11-04T14:58:23.545Z,18.53
2018-11-04T15:00:53.336Z,16.50
2018-11-04T15:03:23.144Z,14.40
2018-11-04T15:05:53.147Z,16.07
2018-11-04T15:08:23.000Z,15.40
2018-11-04T15:10:52.887Z,17.20
2018-11-04T15:13:22.566Z,16.97
2018-11-04T15:15:52.251Z,14.90
2018-11-04T15:18:22.165Z,15.80
2018-11-04T15:20:51.857Z,14.60
2018-11-04T15:23:21.757Z,13.20
2018-11-04T15:25:51.591Z,13.00
2018-11-04T15:28:21.501Z,16.13
2018-11-04T15:30:51.111Z,13.73
2018-11-04T15:33:21.018Z,14.00
2018-11-04T15:35:50.737Z,13.17
2018-11-04T15:38:20.705Z,12.50
2018-11-04T15:40:50.565Z,13.03
2018-11-04T15:43:20.352Z,13.47
2018-11-04T15:45:50.317Z,13.30
2018-11-04T15:48:20.013Z,12.75
2018-11-04T15:50:49.757Z,13.10
2018-11-04T15:53:20.020Z,13.10
2018-11-04T15:55:49.957Z,15.23
2018-11-04T15:58:19.712Z,11.90
2018-11-04T16:00:49.785Z,12.50
2018-11-04T16:03:19.322Z,13.57
2018-11-04T16:05:49.261Z,15.20
2018-11-04T16:08:19.143Z,14.97
2018-11-04T16:10:49.150Z,11.87
2018-11-04T16:13:18.956Z,14.00
2018-11-04T16:15:48.746Z,12.73
2018-11-04T16:18:18.589Z,14.00
2018-11-04T16:20:48.246Z,14.13
2018-11-04T16:23:18.104Z,15.60
2018-11-04T16:25:47.625Z,14.10
2018-11-04T16:28:17.419Z,13.03
2018-11-04T16:30:47.452Z,13.70
2018-11-04T16:33:17.163Z,16.33
2018-11-04T16:35:46.933Z,12.93
2018-11-04T16:38:16.848Z,14.40
2018-11-04T16:40:46.656Z,15.97
2018-11-04T16:43:16.505Z,14.63
2018-11-04T16:45:46.308Z,15.63
2018-11-04T16:48:16.100Z,14.13
2018-11-04T16:50:45.878Z,14.40
2018-11-04T16:53:15.738Z,14.30
2018-11-04T16:55:45.362Z,14.27
2018-11-04T16:58:15.351Z,13.37
2018-11-04T17:00:45.169Z,13.90
2018-11-04T17:03:15.177Z,12.00
2018-11-04T17:05:45.179Z,14.80
2018-11-04T17:08:14.824Z,14.53
2018-11-04T17:10:45.207Z,14.20
2018-11-04T17:13:14.971Z,15.93
2018-11-04T17:15:44.900Z,14.30
2018-11-04T17:18:14.623Z,15.43
2018-11-04T17:20:44.356Z,15.50
2018-11-04T17:23:14.126Z,13.10
2018-11-04T17:25:43.920Z,13.80
2018-11-04T17:28:13.522Z,14.00
2018-11-04T17:30:44.119Z,15.63
2018-11-04T17:33:13.851Z,16.07
2018-11-04T17:35:43.709Z,18.60
2018-11-04T17:38:13.479Z,15.80
2018-11-04T17:40:43.233Z,16.30
2018-11-04T17:43:12.864Z,18.40
2018-11-04T17:45:42.656Z,15.73
2018-11-04T17:48:12.436Z,18.17
2018-11-04T17:50:42.255Z,19.60
2018-11-04T17:53:11.798Z,20.60
2018-11-04T17:55:41.533Z,19.73
2018-11-04T17:58:11.323Z,20.20
2018-11-04T18:00:40.925Z,18.00
2018-11-04T18:03:18.162Z,15.73
2018-11-04T18:05:48.655Z,16.70
2018-11-04T18:08:18.550Z,16.00
2018-11-04T18:10:48.195Z,17.70
2018-11-04T18:13:18.080Z,17.63
2018-11-04T18:15:47.891Z,18.00
2018-11-04T18:18:17.783Z,17.80
2018-11-04T18:20:47.589Z,18.10
2018-11-04T18:23:17.393Z,16.07
2018-11-04T18:25:47.130Z,19.07
2018-11-04T18:28:16.768Z,15.97
2018-11-04T18:30:46.318Z,16.80
2018-11-04T18:33:16.068Z,16.07
2018-11-04T18:35:45.805Z,18.50
2018-11-04T18:38:15.588Z,16.20
2018-11-04T18:40:45.390Z,21.30
2018-11-04T18:43:15.098Z,18.03
2018-11-04T18:45:45.788Z,17.53
2018-11-04T18:48:15.678Z,17.37
2018-11-04T18:50:45.476Z,17.27
2018-11-04T18:53:15.211Z,17.17
2018-11-04T18:55:44.984Z,17.70
2018-11-04T18:58:14.796Z,19.00
2018-11-04T19:00:44.508Z,19.47
2018-11-04T19:03:14.122Z,18.43
2018-11-04T19:05:43.862Z,20.60
2018-11-04T19:08:13.550Z,16.43
2018-11-04T19:10:43.449Z,16.83
2018-11-04T19:13:13.253Z,18.10
2018-11-04T19:15:43.050Z,17.70
2018-11-04T19:18:13.350Z,18.40
2018-11-04T19:20:43.028Z,17.97
2018-11-04T19:23:12.697Z,19.17
2018-11-04T19:25:42.373Z,17.80
2018-11-04T19:28:12.257Z,20.10
2018-11-04T19:30:42.011Z,18.37
2018-11-04T19:33:11.707Z,19.57
2018-11-04T19:35:41.603Z,18.80
2018-11-04T19:38:11.271Z,16.67
2018-11-04T19:40:41.093Z,19.83
2018-11-04T19:43:10.807Z,20.83
2018-11-04T19:45:40.502Z,19.70
2018-11-04T19:48:10.345Z,18.60
2018-11-04T19:50:39.872Z,19.10
2018-11-04T19:53:09.696Z,20.50
2018-11-04T19:55:39.444Z,18.63
2018-11-04T19:58:09.345Z,20.17
2018-11-04T20:00:38.999Z,19.30
2018-11-04T20:03:08.738Z,17.27
2018-11-04T20:05:38.416Z,16.83
2018-11-04T20:08:08.257Z,20.97
2018-11-04T20:10:38.037Z,18.17
2018-11-04T20:13:12.874Z,20.23
2018-11-04T20:15:42.382Z,23.33
2018-11-04T20:18:17.415Z,20.63
2018-11-04T20:20:47.006Z,25.17
2018-11-04T20:23:16.762Z,19.33
2018-11-04T20:25:51.684Z,23.63
2018-11-04T20:28:21.420Z,20.93
2018-11-04T20:30:51.011Z,21.70
2018-11-04T20:33:20.714Z,23.70
2018-11-04T20:35:50.604Z,21.20
2018-11-04T20:38:24.505Z,20.27
2018-11-04T20:40:59.526Z,21.30
2018-11-04T20:43:29.218Z,24.10
2018-11-04T20:45:59.295Z,19.57
2018-11-04T20:48:34.258Z,18.60
2018-11-04T20:51:06.216Z,23.27
2018-11-04T20:53:36.448Z,22.60
2018-11-04T20:56:11.752Z,24.70
2018-11-04T20:58:41.542Z,22.30
2018-11-04T21:01:11.252Z,22.23
2018-11-04T21:03:41.074Z,20.23
2018-11-04T21:06:11.007Z,19.83
2018-11-04T21:08:40.840Z,19.37
2018-11-04T21:11:10.650Z,17.67
2018-11-04T21:13:40.451Z,18.83
2018-11-04T21:16:10.309Z,19.03
2018-11-04T21:18:39.880Z,19.50
2018-11-04T21:21:09.647Z,19.80
2018-11-04T21:23:39.538Z,21.10
2018-11-04T21:26:09.278Z,21.47
2018-11-04T21:28:39.274Z,21.53
2018-11-04T21:31:08.835Z,23.40
2018-11-04T21:33:38.728Z,20.60
2018-11-04T21:36:08.592Z,21.80
2018-11-04T21:38:38.376Z,22.63
2018-11-04T21:41:08.139Z,24.93
2018-11-04T21:43:38.079Z,20.27
2018-11-04T21:46:07.627Z,20.03
2018-11-04T21:48:37.310Z,21.50
2018-11-04T21:51:07.196Z,22.97
2018-11-04T21:53:36.852Z,21.80
2018-11-04T21:56:06.966Z,21.30
2018-11-04T21:58:36.663Z,21.77
2018-11-04T22:01:06.606Z,23.83
2018-11-04T22:03:36.443Z,19.13
2018-11-04T22:06:06.424Z,22.80
2018-11-04T22:08:36.236Z,21.90
2018-11-04T22:11:05.938Z,23.20
2018-11-04T22:13:35.755Z,19.10
2018-11-04T22:16:05.544Z,19.53
2018-11-04T22:18:35.406Z,21.07
2018-11-04T22:21:05.239Z,22.57
2018-11-04T22:23:35.029Z,20.10
2018-11-04T22:26:04.922Z,21.10
2018-11-04T22:28:34.680Z,20.13
2018-11-04T22:31:04.434Z,21.90
2018-11-04T22:33:33.972Z,21.03
2018-11-04T22:36:03.774Z,22.00
2018-11-04T22:38:33.553Z,21.50
2018-11-04T22:41:03.356Z,23.43
2018-11-04T22:43:33.150Z,22.00
2018-11-04T22:46:02.814Z,23.87
2018-11-04T22:48:32.643Z,20.83
2018-11-04T22:51:02.270Z,19.00
2018-11-04T22:53:31.841Z,20.47
2018-11-04T22:56:01.623Z,20.97
2018-11-04T22:58:31.246Z,19.50
2018-11-04T23:01:02.126Z,20.83
2018-11-04T23:03:31.932Z,20.93
2018-11-04T23:06:05.105Z,21.57
2018-11-04T23:08:35.058Z,20.77
2018-11-04T23:11:04.946Z,19.50
2018-11-04T23:13:34.678Z,17.80
2018-11-04T23:16:04.563Z,19.73
2018-11-04T23:18:35.147Z,19.77
2018-11-04T23:21:04.832Z,19.93
2018-11-04T23:23:34.641Z,19.60
2018-11-04T23:26:04.350Z,18.17
2018-11-04T23:28:34.038Z,19.10
2018-11-04T23:31:03.752Z,16.53
2018-11-04T23:33:33.328Z,20.30
2018-11-04T23:36:02.998Z,17.70
2018-11-04T23:38:32.628Z,18.40
2018-11-04T23:41:02.281Z,18.40
2018-11-04T23:43:31.988Z,17.63
2018-11-04T23:46:01.796Z,19.37
2018-11-04T23:48:31.600Z,20.80
2018-11-04T23:51:01.555Z,18.83
2018-11-04T23:53:31.262Z,20.57
2018-11-04T23:56:00.893Z,17.97
2018-11-04T23:58:30.592Z,19.20
